Time;durP1;ratioP1;P1;durP2;ratioP2;P2;SDS_P1;SDS_P2;PMS_P1;PMS_P2;Temp;Humidity;BMP_temperature;BMP_pressure;BME280_temperature;BME280_humidity;BME280_pressure;Samples;Min_cycle;Max_cycle;Signal;HPM_P1;HPM_P2
2023/12/20 00:01:57;;;;;;;;;;;5.30;99.90;;;;;;5064867;28;19945;-69
2023/12/20 00:04:23;;;;;;;;;;;5.30;99.90;;;;;;5064442;28;20163;-69
2023/12/20 00:06:50;;;;;;;;;;;5.30;99.90;;;;;;5064713;28;19985;-69
2023/12/20 00:09:17;;;;;;;;;;;5.30;99.90;;;;;;5064389;28;19983;-69
2023/12/20 00:11:44;;;;;;;;;;;5.30;99.90;;;;;;5064796;28;19925;-69
2023/12/20 00:14:10;;;;;;;;;;;5.30;99.90;;;;;;5063980;28;19921;-69
2023/12/20 00:16:37;;;;;;;;;;;5.30;99.90;;;;;;5064698;28;19928;-68
2023/12/20 00:19:05;;;;;;;;;;;5.30;99.90;;;;;;5064254;28;19921;-69
2023/12/20 00:21:32;;;;;;;;;;;5.30;99.90;;;;;;5063348;28;19956;-68
2023/12/20 00:23:58;;;;;;;;;;;5.20;99.90;;;;;;5063984;28;19984;-68
2023/12/20 00:26:25;;;;;;;;;;;5.20;99.90;;;;;;5064452;28;20110;-69
2023/12/20 00:28:51;;;;;;;;;;;5.20;99.90;;;;;;5064136;28;20193;-68
2023/12/20 00:31:18;;;;;;;;;;;5.20;99.90;;;;;;5064367;28;19921;-69
2023/12/20 00:33:46;;;;;;;;;;;5.20;99.90;;;;;;5063917;28;19920;-69
2023/12/20 00:36:14;;;;;;;;;;;5.20;99.90;;;;;;5064367;28;19921;-69
2023/12/20 00:38:41;;;;;;;;;;;5.20;99.90;;;;;;5064281;28;19984;-69
2023/12/20 00:41:08;;;;;;;;;;;5.20;99.90;;;;;;5064228;28;19928;-69
2023/12/20 00:43:34;;;;;;;;;;;5.20;99.90;;;;;;5063368;28;19920;-69
2023/12/20 00:46:01;;;;;;;;;;;5.20;99.90;;;;;;5064064;28;19956;-69
2023/12/20 00:48:30;;;;;;;;;;;5.20;99.90;;;;;;5063513;28;21143;-69
2023/12/20 00:50:56;;;;;;;;;;;5.10;99.90;;;;;;5063772;28;19984;-69
2023/12/20 00:53:24;;;;;;;;;;;5.20;99.90;;;;;;5063138;28;20110;-69
2023/12/20 00:55:51;;;;;;;;;;;5.20;99.90;;;;;;5063662;28;19988;-68
2023/12/20 00:58:18;;;;;;;;;;;5.10;99.90;;;;;;5062512;28;19952;-68
2023/12/20 01:00:44;;;;;;;;;;;5.20;99.90;;;;;;5062717;28;19979;-70
2023/12/20 01:03:11;;;;;;;;;;;5.10;99.90;;;;;;5062699;28;19984;-68
2023/12/20 01:05:37;;;;;;;;;;;5.20;99.90;;;;;;5063666;28;19984;-69
2023/12/20 01:08:05;;;;;;;;;;;5.20;99.90;;;;;;5063470;28;19944;-70
2023/12/20 01:10:33;;;;;;;;;;;5.20;99.90;;;;;;5063586;28;19921;-69
2023/12/20 01:12:58;;;;;;;;;;;5.10;99.90;;;;;;5062742;28;20229;-68
2023/12/20 01:15:25;;;;;;;;;;;5.20;99.90;;;;;;5063251;28;19952;-68
2023/12/20 01:17:52;;;;;;;;;;;5.20;99.90;;;;;;5063258;28;19927;-69
2023/12/20 01:20:19;;;;;;;;;;;5.20;99.90;;;;;;5063139;28;19965;-69
2023/12/20 01:22:46;;;;;;;;;;;5.20;99.90;;;;;;5061942;28;19921;-69
2023/12/20 01:25:13;;;;;;;;;;;5.20;99.90;;;;;;5063458;28;19925;-70
2023/12/20 01:27:41;;;;;;;;;;;5.20;99.90;;;;;;5062959;28;19928;-68
2023/12/20 01:30:08;;;;;;;;;;;5.10;99.90;;;;;;5062770;28;20253;-68
2023/12/20 01:32:35;;;;;;;;;;;5.10;99.90;;;;;;5061345;28;19921;-68
2023/12/20 01:35:01;;;;;;;;;;;5.10;99.90;;;;;;5063279;28;19921;-69
2023/12/20 01:37:29;;;;;;;;;;;5.10;99.90;;;;;;5063186;28;19928;-69
2023/12/20 01:39:55;;;;;;;;;;;5.10;99.90;;;;;;5062872;28;20246;-68
2023/12/20 01:42:23;;;;;;;;;;;5.10;99.90;;;;;;5062328;28;20207;-68
2023/12/20 01:44:51;;;;;;;;;;;5.10;99.90;;;;;;5061231;28;19928;-69
2023/12/20 01:47:17;;;;;;;;;;;5.10;99.90;;;;;;5061430;28;19983;-71
2023/12/20 01:49:44;;;;;;;;;;;5.10;99.90;;;;;;5056183;28;19989;-68
2023/12/20 01:52:11;;;;;;;;;;;5.10;99.90;;;;;;5062907;28;19956;-68
2023/12/20 01:54:38;;;;;;;;;;;5.10;99.90;;;;;;5062777;28;20142;-68
2023/12/20 01:57:07;;;;;;;;;;;5.00;99.90;;;;;;5062958;28;20307;-68
2023/12/20 01:59:34;;;;;;;;;;;5.00;99.90;;;;;;5052700;28;20252;-68
2023/12/20 02:02:03;;;;;;;;;;;5.00;99.90;;;;;;5060833;28;19952;-68
2023/12/20 02:04:30;;;;;;;;;;;5.00;99.90;;;;;;5062193;28;19967;-68
2023/12/20 02:06:57;;;;;;;;;;;4.90;99.90;;;;;;5062875;28;19952;-69
2023/12/20 02:09:23;;;;;;;;;;;4.90;99.90;;;;;;5062456;28;19988;-68
2023/12/20 02:11:50;;;;;;;;;;;4.90;99.90;;;;;;5062660;28;19988;-68
2023/12/20 02:14:17;;;;;;;;;;;4.80;99.90;;;;;;5061626;28;19921;-68
2023/12/20 02:16:43;;;;;;;;;;;4.80;99.90;;;;;;5064154;28;20072;-68
2023/12/20 02:19:14;;;;;;;;;;;4.70;99.90;;;;;;5066634;28;19952;-68
2023/12/20 02:21:42;;;;;;;;;;;4.70;99.90;;;;;;5065679;28;19995;-68
2023/12/20 02:24:08;;;;;;;;;;;4.70;99.90;;;;;;5065888;28;20269;-68
2023/12/20 02:26:35;;;;;;;;;;;4.70;99.90;;;;;;5066814;28;19963;-68
2023/12/20 02:29:02;;;;;;;;;;;4.60;99.90;;;;;;5066392;28;19955;-68
2023/12/20 02:31:28;;;;;;;;;;;4.60;99.90;;;;;;5066358;28;19928;-68
2023/12/20 02:33:55;;;;;;;;;;;4.50;99.90;;;;;;5065888;28;19921;-68
2023/12/20 02:36:22;;;;;;;;;;;4.50;99.90;;;;;;5066583;28;19920;-68
2023/12/20 02:38:50;;;;;;;;;;;4.50;99.90;;;;;;5060746;28;19921;-68
2023/12/20 02:41:18;;;;;;;;;;;4.50;99.90;;;;;;5064177;28;19920;-68
2023/12/20 02:43:44;;;;;;;;;;;4.40;99.90;;;;;;5065397;28;19935;-67
2023/12/20 02:46:11;;;;;;;;;;;4.40;99.90;;;;;;5066040;28;19997;-68
2023/12/20 02:48:37;;;;;;;;;;;4.40;99.90;;;;;;5065817;28;20210;-68
2023/12/20 02:51:04;;;;;;;;;;;4.40;99.90;;;;;;5065977;28;19956;-68
2023/12/20 02:53:31;;;;;;;;;;;4.40;99.90;;;;;;5064399;28;20262;-69
2023/12/20 02:55:59;;;;;;;;;;;4.40;99.90;;;;;;5066329;28;19980;-68
2023/12/20 02:58:25;;;;;;;;;;;4.40;99.90;;;;;;5064404;28;20004;-68
2023/12/20 03:00:52;;;;;;;;;;;4.40;99.90;;;;;;5065812;28;19920;-68
2023/12/20 03:03:19;;;;;;;;;;;4.40;99.90;;;;;;5065172;28;19920;-68
2023/12/20 03:05:46;;;;;;;;;;;4.40;99.90;;;;;;5064309;28;19984;-68
2023/12/20 03:08:12;;;;;;;;;;;4.40;99.90;;;;;;5065666;28;19988;-68
2023/12/20 03:10:39;;;;;;;;;;;4.40;99.90;;;;;;5065959;28;19984;-70
2023/12/20 03:13:07;;;;;;;;;;;4.30;99.90;;;;;;5065149;28;19921;-68
2023/12/20 03:15:33;;;;;;;;;;;4.30;99.90;;;;;;5064904;28;19992;-68
2023/12/20 03:18:00;;;;;;;;;;;4.30;99.90;;;;;;5065479;28;19928;-68
2023/12/20 03:20:27;;;;;;;;;;;4.30;99.90;;;;;;5065342;28;20240;-68
2023/12/20 03:22:53;;;;;;;;;;;4.30;99.90;;;;;;5064260;28;19921;-68
2023/12/20 03:25:20;;;;;;;;;;;4.30;99.90;;;;;;5065540;28;19952;-68
2023/12/20 03:27:46;;;;;;;;;;;4.30;99.90;;;;;;5064798;28;19927;-68
2023/12/20 03:30:15;;;;;;;;;;;4.30;99.90;;;;;;5065463;28;19927;-68
2023/12/20 03:32:41;;;;;;;;;;;4.20;99.90;;;;;;5064887;28;20157;-68
2023/12/20 03:35:08;;;;;;;;;;;4.30;99.90;;;;;;5065038;28;20537;-68
2023/12/20 03:37:34;;;;;;;;;;;4.30;99.90;;;;;;5065292;28;19921;-68
2023/12/20 03:40:01;;;;;;;;;;;4.30;99.90;;;;;;5056709;28;19952;-68
2023/12/20 03:42:28;;;;;;;;;;;4.20;99.90;;;;;;5064713;28;19929;-68
2023/12/20 03:44:54;;;;;;;;;;;4.20;99.90;;;;;;5063363;28;19984;-68
2023/12/20 03:47:22;;;;;;;;;;;4.20;99.90;;;;;;5057448;28;19957;-69
2023/12/20 03:49:49;;;;;;;;;;;4.20;99.90;;;;;;5050235;28;19967;-68
2023/12/20 03:52:16;;;;;;;;;;;4.20;99.90;;;;;;5049074;28;20262;-68
2023/12/20 03:54:42;;;;;;;;;;;4.20;99.90;;;;;;5046144;28;19925;-68
2023/12/20 03:57:09;;;;;;;;;;;4.10;99.90;;;;;;5045393;28;19921;-68
2023/12/20 03:59:36;;;;;;;;;;;4.10;99.90;;;;;;5048489;28;19927;-68
2023/12/20 04:02:03;;;;;;;;;;;4.10;99.90;;;;;;5051381;28;20227;-68
2023/12/20 04:04:31;;;;;;;;;;;4.10;99.90;;;;;;5047757;28;20233;-68
2023/12/20 04:06:57;;;;;;;;;;;4.10;99.90;;;;;;5046828;28;19975;-68
2023/12/20 04:09:24;;;;;;;;;;;4.10;99.90;;;;;;5050031;28;20008;-68
2023/12/20 04:11:50;;;;;;;;;;;4.00;99.90;;;;;;5051436;28;20114;-68
2023/12/20 04:14:17;;;;;;;;;;;4.00;99.90;;;;;;5057926;28;19952;-68
2023/12/20 04:16:44;;;;;;;;;;;4.00;99.90;;;;;;5064628;28;19948;-68
2023/12/20 04:19:10;;;;;;;;;;;4.00;99.90;;;;;;5056786;28;20190;-68
2023/12/20 04:21:38;;;;;;;;;;;4.00;99.90;;;;;;5063953;28;19921;-68
2023/12/20 04:24:05;;;;;;;;;;;3.90;99.90;;;;;;5064334;28;19984;-68
2023/12/20 04:26:32;;;;;;;;;;;4.00;99.90;;;;;;5064494;28;19952;-68
2023/12/20 04:28:59;;;;;;;;;;;3.90;99.90;;;;;;5064183;28;20095;-68
2023/12/20 04:31:25;;;;;;;;;;;3.90;99.90;;;;;;5064396;28;19921;-68
2023/12/20 04:33:52;;;;;;;;;;;3.90;99.90;;;;;;5062529;28;19984;-68
2023/12/20 04:36:19;;;;;;;;;;;3.90;99.90;;;;;;5064239;28;19921;-67
2023/12/20 04:38:46;;;;;;;;;;;3.90;99.90;;;;;;5063099;28;19952;-68
2023/12/20 04:41:15;;;;;;;;;;;3.90;99.90;;;;;;5064043;28;19952;-67
2023/12/20 04:43:42;;;;;;;;;;;3.90;99.90;;;;;;5063681;28;19921;-68
2023/12/20 04:46:09;;;;;;;;;;;3.90;99.90;;;;;;5063832;28;19984;-68
2023/12/20 04:48:35;;;;;;;;;;;3.90;99.90;;;;;;5063831;28;19921;-69
2023/12/20 04:51:02;;;;;;;;;;;3.90;99.90;;;;;;5064110;28;19956;-68
2023/12/20 04:53:28;;;;;;;;;;;3.80;99.90;;;;;;5063172;28;19983;-68
2023/12/20 04:55:56;;;;;;;;;;;3.80;99.90;;;;;;5063952;28;20165;-68
2023/12/20 04:58:23;;;;;;;;;;;3.80;99.90;;;;;;5063631;28;19929;-69
2023/12/20 05:00:50;;;;;;;;;;;3.90;99.90;;;;;;5063504;28;19927;-68
2023/12/20 05:03:17;;;;;;;;;;;3.80;99.90;;;;;;5054869;28;19927;-68
2023/12/20 05:05:43;;;;;;;;;;;3.80;99.90;;;;;;5063560;28;19983;-68
2023/12/20 05:08:10;;;;;;;;;;;3.80;99.90;;;;;;5063387;28;19931;-69
2023/12/20 05:10:37;;;;;;;;;;;3.80;99.90;;;;;;5063636;28;19920;-69
2023/12/20 05:13:05;;;;;;;;;;;3.80;99.90;;;;;;5062685;28;20248;-69
2023/12/20 05:15:32;;;;;;;;;;;3.80;99.90;;;;;;5063582;28;19956;-68
2023/12/20 05:17:58;;;;;;;;;;;3.80;99.90;;;;;;5058771;28;20183;-68
2023/12/20 05:20:25;;;;;;;;;;;3.80;99.90;;;;;;5063520;28;19996;-68
2023/12/20 05:22:51;;;;;;;;;;;3.70;99.90;;;;;;5062941;28;19920;-67
2023/12/20 05:25:18;;;;;;;;;;;3.70;99.90;;;;;;5063497;28;19983;-68
2023/12/20 05:27:45;;;;;;;;;;;3.70;99.90;;;;;;5063355;28;19921;-69
2023/12/20 05:30:13;;;;;;;;;;;3.70;99.90;;;;;;5062858;28;19983;-68
2023/12/20 05:32:40;;;;;;;;;;;3.70;99.90;;;;;;5062583;28;20122;-69
2023/12/20 05:35:07;;;;;;;;;;;3.70;99.90;;;;;;5062141;28;19921;-68
2023/12/20 05:37:33;;;;;;;;;;;3.70;99.90;;;;;;5058690;28;19988;-69
2023/12/20 05:40:00;;;;;;;;;;;3.70;99.90;;;;;;5062652;28;20266;-68
2023/12/20 05:42:26;;;;;;;;;;;3.70;99.90;;;;;;5062616;28;20007;-69
2023/12/20 05:44:53;;;;;;;;;;;3.70;99.90;;;;;;5062960;28;20210;-68
2023/12/20 05:47:21;;;;;;;;;;;3.70;99.90;;;;;;5062460;28;19955;-67
2023/12/20 05:49:48;;;;;;;;;;;3.70;99.90;;;;;;5062812;28;19960;-69
2023/12/20 05:52:14;;;;;;;;;;;3.70;99.90;;;;;;5062085;28;19921;-68
2023/12/20 05:54:41;;;;;;;;;;;3.70;99.90;;;;;;5050730;28;19988;-68
2023/12/20 05:57:08;;;;;;;;;;;3.80;99.90;;;;;;5048979;28;20242;-68
2023/12/20 05:59:34;;;;;;;;;;;3.80;99.90;;;;;;5049692;28;19925;-68
2023/12/20 06:02:01;;;;;;;;;;;3.80;99.90;;;;;;5049690;28;19929;-68
2023/12/20 06:04:29;;;;;;;;;;;3.70;99.90;;;;;;5046725;28;20011;-68
2023/12/20 06:06:55;;;;;;;;;;;3.80;99.90;;;;;;5048349;28;19928;-68
2023/12/20 06:09:22;;;;;;;;;;;3.80;99.90;;;;;;5055182;28;20008;-68
2023/12/20 06:11:48;;;;;;;;;;;3.80;99.90;;;;;;5048929;28;19927;-68
2023/12/20 06:14:15;;;;;;;;;;;3.80;99.90;;;;;;5062194;28;19983;-68
2023/12/20 06:16:42;;;;;;;;;;;3.80;99.90;;;;;;5057630;28;19927;-68
2023/12/20 06:19:08;;;;;;;;;;;3.90;99.90;;;;;;5061597;28;20009;-69
2023/12/20 06:21:36;;;;;;;;;;;3.90;99.90;;;;;;5056584;28;20143;-71
2023/12/20 06:24:03;;;;;;;;;;;3.90;99.90;;;;;;5050946;28;19967;-69
2023/12/20 06:26:30;;;;;;;;;;;3.90;99.90;;;;;;5045687;28;19948;-68
2023/12/20 06:28:56;;;;;;;;;;;3.90;99.90;;;;;;5058359;28;19928;-67
2023/12/20 06:31:23;;;;;;;;;;;3.90;99.90;;;;;;5056475;28;20106;-67
2023/12/20 06:33:57;;;;;;;;;;;4.00;99.90;;;;;;5056582;28;20114;-69
2023/12/20 06:36:23;;;;;;;;;;;4.00;99.90;;;;;;5062385;28;20214;-69
2023/12/20 06:38:51;;;;;;;;;;;4.00;99.90;;;;;;5062604;28;20185;-69
2023/12/20 06:41:18;;;;;;;;;;;4.00;99.90;;;;;;5060765;28;19920;-71
2023/12/20 06:43:45;;;;;;;;;;;4.00;99.90;;;;;;5062305;28;19964;-68
2023/12/20 06:46:13;;;;;;;;;;;3.90;99.90;;;;;;5060910;28;20143;-68
2023/12/20 06:48:40;;;;;;;;;;;4.00;99.90;;;;;;5062221;28;20215;-68
2023/12/20 06:51:06;;;;;;;;;;;4.00;99.90;;;;;;5054323;28;19921;-69
2023/12/20 06:53:33;;;;;;;;;;;4.00;99.90;;;;;;5061846;28;19984;-68
2023/12/20 06:56:01;;;;;;;;;;;4.10;99.90;;;;;;5062330;28;19927;-68
2023/12/20 06:58:27;;;;;;;;;;;4.00;99.90;;;;;;5062119;28;19995;-68
2023/12/20 07:00:54;;;;;;;;;;;4.10;99.90;;;;;;5062469;28;19952;-68
2023/12/20 07:03:21;;;;;;;;;;;4.10;99.90;;;;;;5065169;28;19927;-68
2023/12/20 07:05:47;;;;;;;;;;;4.10;99.90;;;;;;5066357;28;19957;-69
2023/12/20 07:08:15;;;;;;;;;;;4.10;99.90;;;;;;5065885;28;19979;-69
2023/12/20 07:10:42;;;;;;;;;;;4.10;99.90;;;;;;5065944;28;19946;-68
2023/12/20 07:13:10;;;;;;;;;;;4.10;99.90;;;;;;5065028;28;20154;-69
2023/12/20 07:15:37;;;;;;;;;;;4.10;99.90;;;;;;5066145;28;19971;-69
2023/12/20 07:18:04;;;;;;;;;;;4.10;99.90;;;;;;5065923;28;20155;-69
2023/12/20 07:20:31;;;;;;;;;;;4.20;99.90;;;;;;5065918;28;19963;-69
2023/12/20 07:22:57;;;;;;;;;;;4.20;99.90;;;;;;5065221;28;19920;-69
2023/12/20 07:25:24;;;;;;;;;;;4.20;99.90;;;;;;5065898;28;19920;-68
2023/12/20 07:27:51;;;;;;;;;;;4.20;99.90;;;;;;5065815;28;19975;-69
2023/12/20 07:30:19;;;;;;;;;;;4.20;99.90;;;;;;5065477;28;19988;-69
2023/12/20 07:32:45;;;;;;;;;;;4.30;99.90;;;;;;5065300;28;19956;-69
2023/12/20 07:35:12;;;;;;;;;;;4.30;99.90;;;;;;5065722;28;20118;-69
2023/12/20 07:37:38;;;;;;;;;;;4.30;99.90;;;;;;5061419;28;19921;-69
2023/12/20 07:40:06;;;;;;;;;;;4.30;99.90;;;;;;5061896;28;20159;-69
2023/12/20 07:42:32;;;;;;;;;;;4.30;99.90;;;;;;5065188;28;19964;-69
2023/12/20 07:44:59;;;;;;;;;;;4.30;99.90;;;;;;5065535;28;20165;-71
2023/12/20 07:47:27;;;;;;;;;;;4.30;99.90;;;;;;5065591;28;19921;-70
2023/12/20 07:49:54;;;;;;;;;;;4.30;99.90;;;;;;5065006;28;20287;-69
2023/12/20 07:52:21;;;;;;;;;;;4.30;99.90;;;;;;5064713;28;19921;-71
2023/12/20 07:54:48;;;;;;;;;;;4.30;99.90;;;;;;5065392;28;19967;-69
2023/12/20 07:57:15;;;;;;;;;;;4.30;99.90;;;;;;5064827;28;20238;-69
2023/12/20 07:59:41;;;;;;;;;;;4.30;99.90;;;;;;5064725;28;19983;-69
2023/12/20 08:02:08;;;;;;;;;;;4.30;99.90;;;;;;5065220;28;19942;-68
2023/12/20 08:04:36;;;;;;;;;;;4.30;99.90;;;;;;5064650;28;19927;-69
2023/12/20 08:07:03;;;;;;;;;;;4.30;99.90;;;;;;5064581;28;19985;-69
2023/12/20 08:09:29;;;;;;;;;;;4.30;99.90;;;;;;5064905;28;19984;-68
2023/12/20 08:11:56;;;;;;;;;;;4.30;99.90;;;;;;5064614;28;19920;-69
2023/12/20 08:14:23;;;;;;;;;;;4.40;99.90;;;;;;5062955;28;19928;-69
2023/12/20 08:16:49;;;;;;;;;;;4.30;99.90;;;;;;5064824;28;19925;-69
2023/12/20 08:19:16;;;;;;;;;;;4.30;99.90;;;;;;5064767;28;19963;-69
2023/12/20 08:21:44;;;;;;;;;;;4.40;99.90;;;;;;5064733;28;20006;-69
2023/12/20 08:24:11;;;;;;;;;;;4.30;99.90;;;;;;5064147;28;19983;-69
2023/12/20 08:26:38;;;;;;;;;;;4.30;99.90;;;;;;5064712;28;20232;-69
2023/12/20 08:29:04;;;;;;;;;;;4.30;99.90;;;;;;5063331;28;19983;-69
2023/12/20 08:31:31;;;;;;;;;;;4.30;99.90;;;;;;5064627;28;20158;-69
2023/12/20 08:33:58;;;;;;;;;;;4.30;99.90;;;;;;5064124;28;19988;-69
2023/12/20 08:36:25;;;;;;;;;;;4.30;99.90;;;;;;5064497;28;19953;-69
2023/12/20 08:38:52;;;;;;;;;;;4.30;99.90;;;;;;5064328;28;19929;-69
2023/12/20 08:41:20;;;;;;;;;;;4.30;99.90;;;;;;5064420;28;20173;-69
2023/12/20 08:43:46;;;;;;;;;;;4.30;99.90;;;;;;5062633;28;19921;-69
2023/12/20 08:46:14;;;;;;;;;;;4.30;99.90;;;;;;5063997;28;19983;-69
2023/12/20 08:48:41;;;;;;;;;;;4.30;99.90;;;;;;5063910;28;19952;-69
2023/12/20 08:51:08;;;;;;;;;;;4.30;99.90;;;;;;5063764;28;19920;-70
2023/12/20 08:53:35;;;;;;;;;;;4.30;99.90;;;;;;5063787;28;19921;-68
2023/12/20 08:56:03;;;;;;;;;;;4.30;99.90;;;;;;5064158;28;19963;-69
2023/12/20 08:58:29;;;;;;;;;;;4.30;99.90;;;;;;5064060;28;19979;-69
2023/12/20 09:00:57;;;;;;;;;;;4.30;99.90;;;;;;5064123;28;19963;-69
2023/12/20 09:03:23;;;;;;;;;;;4.30;99.90;;;;;;5063566;28;19959;-69
2023/12/20 09:05:50;;;;;;;;;;;4.30;99.90;;;;;;5064129;28;19920;-69
2023/12/20 09:08:17;;;;;;;;;;;4.30;99.90;;;;;;5063547;28;19956;-69
2023/12/20 09:10:44;;;;;;;;;;;4.30;99.90;;;;;;5063895;28;19943;-69
2023/12/20 09:13:12;;;;;;;;;;;4.30;99.90;;;;;;5054938;28;20165;-71
2023/12/20 09:15:39;;;;;;;;;;;4.30;99.90;;;;;;5064138;28;19991;-69
2023/12/20 09:18:05;;;;;;;;;;;4.30;99.90;;;;;;5063598;28;19956;-70
2023/12/20 09:20:32;;;;;;;;;;;4.30;99.90;;;;;;5063728;28;20170;-69
2023/12/20 09:22:59;;;;;;;;;;;4.30;99.90;;;;;;5063168;28;19921;-69
2023/12/20 09:25:26;;;;;;;;;;;4.30;99.90;;;;;;5055349;28;19952;-71
2023/12/20 09:27:52;;;;;;;;;;;4.20;99.90;;;;;;5063054;28;20230;-69
2023/12/20 09:30:20;;;;;;;;;;;4.30;99.90;;;;;;5063356;28;21239;-69
2023/12/20 09:32:47;;;;;;;;;;;4.20;99.90;;;;;;5062783;28;19963;-69
2023/12/20 09:35:14;;;;;;;;;;;4.30;99.90;;;;;;5062515;28;19992;-69
2023/12/20 09:37:44;;;;;;;;;;;4.30;99.90;;;;;;5063102;28;20289;-69
2023/12/20 09:40:13;;;;;;;;;;;4.40;99.90;;;;;;5063034;28;19971;-68
2023/12/20 09:42:44;;;;;;;;;;;4.40;99.90;;;;;;5062890;28;19952;-69
2023/12/20 09:45:13;;;;;;;;;;;4.40;99.90;;;;;;5063423;28;19988;-69
2023/12/20 09:47:42;;;;;;;;;;;4.50;99.90;;;;;;5063198;28;20004;-69
2023/12/20 09:50:09;;;;;;;;;;;4.50;99.90;;;;;;5062970;28;20229;-69
2023/12/20 09:52:37;;;;;;;;;;;4.50;99.90;;;;;;5062984;28;19983;-69
2023/12/20 09:55:05;;;;;;;;;;;4.50;99.90;;;;;;5063315;28;19959;-68
2023/12/20 09:57:32;;;;;;;;;;;4.50;99.90;;;;;;5063032;28;19925;-70
2023/12/20 09:59:59;;;;;;;;;;;4.60;99.90;;;;;;5063132;28;19960;-69
2023/12/20 10:02:27;;;;;;;;;;;4.60;99.90;;;;;;5062542;28;20125;-69
2023/12/20 10:04:55;;;;;;;;;;;4.70;99.90;;;;;;5062774;28;20238;-69
2023/12/20 10:07:22;;;;;;;;;;;4.70;99.90;;;;;;5062878;28;19963;-69
2023/12/20 10:09:49;;;;;;;;;;;4.80;99.90;;;;;;5062491;28;20210;-69
2023/12/20 10:12:16;;;;;;;;;;;4.80;99.90;;;;;;5062333;28;19963;-69
2023/12/20 10:14:42;;;;;;;;;;;4.90;99.90;;;;;;5062866;28;19927;-69
2023/12/20 10:17:09;;;;;;;;;;;4.90;99.90;;;;;;5062677;28;19921;-71
2023/12/20 10:19:38;;;;;;;;;;;5.00;99.90;;;;;;5063055;28;19956;-69
2023/12/20 10:22:06;;;;;;;;;;;5.00;99.90;;;;;;5062711;28;19984;-70
2023/12/20 10:24:33;;;;;;;;;;;4.90;99.90;;;;;;5062418;28;19956;-69
2023/12/20 10:27:03;;;;;;;;;;;4.90;99.90;;;;;;5062207;28;19943;-70
2023/12/20 10:29:32;;;;;;;;;;;4.90;99.90;;;;;;5062622;28;19967;-69
2023/12/20 10:31:58;;;;;;;;;;;4.90;99.90;;;;;;5062760;28;19956;-70
2023/12/20 10:34:25;;;;;;;;;;;4.90;99.90;;;;;;5062012;28;19921;-70
2023/12/20 10:36:52;;;;;;;;;;;4.80;99.90;;;;;;5055344;28;19920;-70
2023/12/20 10:39:21;;;;;;;;;;;4.80;99.90;;;;;;5066766;28;19956;-69
2023/12/20 10:41:48;;;;;;;;;;;4.80;99.90;;;;;;5066419;28;19921;-70
2023/12/20 10:44:16;;;;;;;;;;;4.80;99.90;;;;;;5065768;28;19921;-69
2023/12/20 10:46:47;;;;;;;;;;;4.70;99.90;;;;;;5066428;28;20214;-70
2023/12/20 10:49:14;;;;;;;;;;;4.70;99.90;;;;;;5066489;28;19921;-70
2023/12/20 10:51:41;;;;;;;;;;;4.70;99.90;;;;;;5066186;28;19996;-70
2023/12/20 10:54:08;;;;;;;;;;;4.70;99.90;;;;;;5065851;28;19975;-70
2023/12/20 10:56:37;;;;;;;;;;;4.70;99.90;;;;;;5069884;28;19925;-69
2023/12/20 10:59:05;;;;;;;;;;;4.70;99.90;;;;;;5066455;28;19952;-69
2023/12/20 11:01:32;;;;;;;;;;;4.70;99.90;;;;;;5067702;28;19921;-69
2023/12/20 11:03:59;;;;;;;;;;;4.70;99.90;;;;;;5067267;28;19988;-72
2023/12/20 11:06:32;;;;;;;;;;;4.70;99.90;;;;;;5067058;28;19953;-69
2023/12/20 11:09:09;;;;;;;;;;;4.70;99.90;;;;;;5061137;28;19980;-69
2023/12/20 11:11:39;;;;;;;;;;;4.70;99.90;;;;;;5060878;28;19967;-71
2023/12/20 11:14:08;;;;;;;;;;;4.70;99.90;;;;;;5068372;28;19956;-69
2023/12/20 11:16:37;;;;;;;;;;;4.70;99.90;;;;;;5061457;28;19927;-69
2023/12/20 11:19:05;;;;;;;;;;;4.70;99.90;;;;;;5061910;28;20258;-69
2023/12/20 11:21:32;;;;;;;;;;;4.70;99.90;;;;;;5065481;28;19960;-69
2023/12/20 11:23:58;;;;;;;;;;;4.70;99.90;;;;;;5065181;28;19983;-69
2023/12/20 11:26:27;;;;;;;;;;;4.70;99.90;;;;;;5065587;28;19952;-69
2023/12/20 11:28:55;;;;;;;;;;;4.80;99.90;;;;;;5063655;28;19984;-68
2023/12/20 11:31:22;;;;;;;;;;;4.80;99.90;;;;;;5063974;28;19984;-69
2023/12/20 11:33:51;;;;;;;;;;;4.80;99.90;;;;;;5065053;28;20159;-69
2023/12/20 11:36:20;;;;;;;;;;;4.80;99.90;;;;;;5065445;28;19920;-69
2023/12/20 11:38:54;;;;;;;;;;;4.80;99.90;;;;;;5065398;28;19929;-69
2023/12/20 11:41:23;;;;;;;;;;;4.80;99.90;;;;;;5065166;28;19983;-70
2023/12/20 11:43:49;;;;;;;;;;;4.80;99.90;;;;;;5064539;28;19963;-70
2023/12/20 11:46:17;;;;;;;;;;;4.80;99.90;;;;;;5065301;28;19921;-70
2023/12/20 11:48:45;;;;;;;;;;;4.70;99.90;;;;;;5061348;28;19988;-69
2023/12/20 11:51:12;;;;;;;;;;;4.70;99.90;;;;;;5064892;28;19920;-69
2023/12/20 11:53:39;;;;;;;;;;;4.70;99.90;;;;;;5061363;28;19944;-69
2023/12/20 11:56:06;;;;;;;;;;;4.70;99.90;;;;;;5061250;28;19980;-69
2023/12/20 11:58:33;;;;;;;;;;;4.70;99.90;;;;;;5059531;28;20274;-69
2023/12/20 12:01:00;;;;;;;;;;;4.70;99.90;;;;;;5063699;28;19956;-69
2023/12/20 12:03:27;;;;;;;;;;;4.60;99.90;;;;;;5064565;28;19984;-69
2023/12/20 12:05:54;;;;;;;;;;;4.70;99.90;;;;;;5064961;28;19984;-69
2023/12/20 12:08:21;;;;;;;;;;;4.70;99.90;;;;;;5064230;28;19984;-69
2023/12/20 12:10:47;;;;;;;;;;;4.70;99.90;;;;;;5064919;28;19929;-69
2023/12/20 12:13:15;;;;;;;;;;;4.70;99.90;;;;;;5059635;28;19976;-69
2023/12/20 12:15:42;;;;;;;;;;;4.70;99.90;;;;;;5064983;28;19928;-69
2023/12/20 12:18:10;;;;;;;;;;;4.70;99.90;;;;;;5061158;28;19920;-69
2023/12/20 12:20:38;;;;;;;;;;;4.70;99.90;;;;;;5064808;28;19928;-69
2023/12/20 12:23:06;;;;;;;;;;;4.70;99.90;;;;;;5061247;28;19952;-69
2023/12/20 12:25:33;;;;;;;;;;;4.70;99.90;;;;;;5064687;28;19920;-69
2023/12/20 12:28:00;;;;;;;;;;;4.70;99.90;;;;;;5061677;28;19956;-69
2023/12/20 12:30:27;;;;;;;;;;;4.70;99.90;;;;;;5056401;28;19956;-69
2023/12/20 12:32:54;;;;;;;;;;;4.70;99.90;;;;;;5057476;28;19985;-69
2023/12/20 12:35:20;;;;;;;;;;;4.70;99.90;;;;;;5064236;28;19921;-69
2023/12/20 12:37:48;;;;;;;;;;;4.70;99.90;;;;;;5063979;28;20130;-69
2023/12/20 12:40:16;;;;;;;;;;;4.70;99.90;;;;;;5063953;28;19983;-70
2023/12/20 12:42:43;;;;;;;;;;;4.70;99.90;;;;;;5063846;28;19956;-69
2023/12/20 12:45:11;;;;;;;;;;;4.60;99.90;;;;;;5061121;28;19921;-69
2023/12/20 12:47:38;;;;;;;;;;;4.60;99.90;;;;;;5064172;28;19925;-69
2023/12/20 12:50:05;;;;;;;;;;;4.60;99.90;;;;;;5064027;28;19960;-69
2023/12/20 12:52:31;;;;;;;;;;;4.60;99.90;;;;;;5063597;28;19984;-69
2023/12/20 12:54:59;;;;;;;;;;;4.60;99.90;;;;;;5064143;28;19928;-69
2023/12/20 12:57:26;;;;;;;;;;;4.60;99.90;;;;;;5063606;28;19984;-70
2023/12/20 12:59:53;;;;;;;;;;;4.60;99.90;;;;;;5063237;28;19943;-71
2023/12/20 13:02:19;;;;;;;;;;;4.60;99.90;;;;;;5063331;28;19920;-69
2023/12/20 13:04:46;;;;;;;;;;;4.60;99.90;;;;;;5063705;28;19987;-69
2023/12/20 13:07:13;;;;;;;;;;;4.60;99.90;;;;;;5063137;28;19921;-69
2023/12/20 13:09:40;;;;;;;;;;;4.60;99.90;;;;;;5063916;28;19921;-69
2023/12/20 13:12:08;;;;;;;;;;;4.60;99.90;;;;;;5063586;28;19928;-70
2023/12/20 13:14:37;;;;;;;;;;;4.60;99.90;;;;;;5058103;28;19988;-69
2023/12/20 13:17:04;;;;;;;;;;;4.60;99.90;;;;;;5063520;28;19927;-70
2023/12/20 13:19:31;;;;;;;;;;;4.60;99.90;;;;;;5063407;28;19921;-69
2023/12/20 13:21:58;;;;;;;;;;;4.50;99.90;;;;;;5062199;28;20024;-70
2023/12/20 13:24:25;;;;;;;;;;;4.60;99.90;;;;;;5062584;28;19943;-71
2023/12/20 13:26:51;;;;;;;;;;;4.60;99.90;;;;;;5063411;28;19921;-69
2023/12/20 13:29:19;;;;;;;;;;;4.60;99.90;;;;;;5062900;28;19983;-70
2023/12/20 13:31:46;;;;;;;;;;;4.50;99.90;;;;;;5062902;28;19987;-69
2023/12/20 13:34:12;;;;;;;;;;;4.50;99.90;;;;;;5062884;28;19928;-69
2023/12/20 13:36:39;;;;;;;;;;;4.50;99.90;;;;;;5063003;28;19928;-69
2023/12/20 13:39:06;;;;;;;;;;;4.50;99.90;;;;;;5062868;28;19920;-70
2023/12/20 13:41:33;;;;;;;;;;;4.50;99.90;;;;;;5063175;28;19978;-69
2023/12/20 13:44:01;;;;;;;;;;;4.40;99.90;;;;;;5062742;28;19921;-69
2023/12/20 13:46:29;;;;;;;;;;;4.40;99.90;;;;;;5062970;28;19929;-69
2023/12/20 13:48:56;;;;;;;;;;;4.40;99.90;;;;;;5063033;28;19952;-69
2023/12/20 13:51:22;;;;;;;;;;;4.30;99.90;;;;;;5062824;28;20122;-70
2023/12/20 13:53:49;;;;;;;;;;;4.30;99.90;;;;;;5061187;28;19955;-70
2023/12/20 13:56:16;;;;;;;;;;;4.30;99.90;;;;;;5063150;28;19928;-69
2023/12/20 13:58:42;;;;;;;;;;;4.20;99.90;;;;;;5059795;28;19920;-69
2023/12/20 14:01:10;;;;;;;;;;;4.30;99.90;;;;;;5061962;28;19952;-70
2023/12/20 14:03:38;;;;;;;;;;;4.30;99.90;;;;;;5062192;28;20273;-70
2023/12/20 14:06:05;;;;;;;;;;;4.30;99.90;;;;;;5062355;28;19948;-70
2023/12/20 14:08:31;;;;;;;;;;;4.30;99.90;;;;;;5062655;28;19952;-70
2023/12/20 14:10:58;;;;;;;;;;;4.30;99.90;;;;;;5062439;28;19927;-69
2023/12/20 14:13:24;;;;;;;;;;;4.20;99.90;;;;;;5065945;28;19921;-70
2023/12/20 14:15:51;;;;;;;;;;;4.20;99.90;;;;;;5066154;28;19920;-70
2023/12/20 14:18:18;;;;;;;;;;;4.20;99.90;;;;;;5064879;28;19928;-69
2023/12/20 14:20:47;;;;;;;;;;;4.20;99.90;;;;;;5066809;28;19921;-71
2023/12/20 14:23:14;;;;;;;;;;;4.10;99.90;;;;;;5066131;28;20218;-69
2023/12/20 14:25:41;;;;;;;;;;;4.10;99.90;;;;;;5066861;28;19920;-70
2023/12/20 14:28:10;;;;;;;;;;;4.10;99.90;;;;;;5066491;28;20253;-70
2023/12/20 14:30:37;;;;;;;;;;;4.10;99.90;;;;;;5067029;28;19975;-70